Time;durP1;ratioP1;P1;durP2;ratioP2;P2;SDS_P1;SDS_P2;PMS_P1;PMS_P2;Temp;Humidity;BMP_temperature;BMP_pressure;BME280_temperature;BME280_humidity;BME280_pressure;Samples;Min_cycle;Max_cycle;Signal;HPM_P1;HPM_P2
2022/08/17 00:00:12;;;;;;;12.40;6.23;;;19.00;1.00;;;;;;5020356;28;20929;-80
2022/08/17 00:03:09;;;;;;;9.63;5.97;;;19.00;1.00;;;;;;5023196;28;20858;-81
2022/08/17 00:06:05;;;;;;;9.20;6.90;;;19.00;1.00;;;;;;5017104;28;20410;-73
2022/08/17 00:08:39;;;;;;;10.47;6.73;;;19.00;1.00;;;;;;5022517;28;20458;-73
2022/08/17 00:11:13;;;;;;;8.97;6.93;;;18.90;1.00;;;;;;5020899;28;20502;-74
2022/08/17 00:13:46;;;;;;;17.37;6.80;;;18.90;1.00;;;;;;5027106;28;20786;-73
2022/08/17 00:16:50;;;;;;;15.43;6.70;;;18.90;1.00;;;;;;5023634;28;20440;-73
2022/08/17 00:19:20;;;;;;;13.90;6.90;;;18.90;1.00;;;;;;5022685;28;20919;-74
2022/08/17 00:21:47;;;;;;;10.30;6.10;;;18.90;1.00;;;;;;5012625;28;20406;-74
2022/08/17 00:24:13;;;;;;;15.17;7.50;;;18.90;1.00;;;;;;5027665;28;20524;-73
2022/08/17 00:26:39;;;;;;;9.90;6.07;;;18.90;1.00;;;;;;5027832;28;20439;-74
2022/08/17 00:29:08;;;;;;;9.90;6.70;;;18.90;1.00;;;;;;5020334;28;20504;-74
2022/08/17 00:31:38;;;;;;;11.10;6.97;;;18.90;1.00;;;;;;5029564;28;20888;-73
2022/08/17 00:34:05;;;;;;;8.70;7.47;;;18.90;1.00;;;;;;5031157;28;20389;-74
2022/08/17 00:36:31;;;;;;;12.03;6.60;;;18.90;1.00;;;;;;5022561;28;20437;-74
2022/08/17 00:39:02;;;;;;;12.13;6.60;;;18.90;1.00;;;;;;5036001;28;20479;-73
2022/08/17 00:41:28;;;;;;;7.93;6.47;;;18.90;1.00;;;;;;5028283;28;20434;-73
2022/08/17 00:44:03;;;;;;;9.00;6.10;;;18.80;1.00;;;;;;5032761;28;20879;-74
2022/08/17 00:46:38;;;;;;;11.33;6.80;;;18.90;1.00;;;;;;5023100;28;20673;-74
2022/08/17 00:49:05;;;;;;;12.60;7.40;;;18.90;1.00;;;;;;5023844;28;20398;-74
2022/08/17 00:51:41;;;;;;;8.50;6.83;;;18.80;1.00;;;;;;5036409;28;20400;-80
2022/08/17 00:57:33;;;;;;;12.33;7.50;;;18.80;1.00;;;;;;5027520;28;20411;-80
2022/08/17 01:00:12;;;;;;;13.83;7.53;;;18.80;1.00;;;;;;5018670;28;20407;-80
2022/08/17 01:03:05;;;;;;;24.80;7.57;;;18.80;1.00;;;;;;5027355;28;20479;-80
2022/08/17 01:05:33;;;;;;;12.67;7.20;;;18.80;1.00;;;;;;5021365;28;20418;-80
2022/08/17 01:08:02;;;;;;;11.83;7.40;;;18.80;1.00;;;;;;5035264;28;20419;-74
2022/08/17 01:10:41;;;;;;;12.53;7.37;;;18.80;1.00;;;;;;5021159;28;20457;-74
2022/08/17 01:13:07;;;;;;;15.63;7.60;;;18.80;1.00;;;;;;5033067;28;20414;-74
2022/08/17 01:15:41;;;;;;;11.20;7.30;;;18.80;1.00;;;;;;5019938;28;20443;-74
2022/08/17 01:18:10;;;;;;;11.17;7.00;;;18.80;1.00;;;;;;5034604;28;20570;-74
2022/08/17 01:20:46;;;;;;;13.20;7.80;;;18.80;1.00;;;;;;5029732;28;20505;-74
2022/08/17 01:23:27;;;;;;;9.73;6.93;;;18.80;1.00;;;;;;5031761;28;20520;-74
2022/08/17 01:25:57;;;;;;;11.97;6.80;;;18.80;1.00;;;;;;5026114;28;20429;-73
2022/08/17 01:28:29;;;;;;;12.33;6.67;;;18.80;1.00;;;;;;5021912;28;20906;-74
2022/08/17 01:30:58;;;;;;;10.30;7.10;;;18.80;1.00;;;;;;5029919;28;20390;-74
2022/08/17 01:33:23;;;;;;;12.30;6.60;;;18.80;1.00;;;;;;5022990;28;20467;-74
2022/08/17 01:35:49;;;;;;;12.83;7.40;;;18.80;1.00;;;;;;5022426;28;20500;-73
2022/08/17 01:38:38;;;;;;;10.17;7.30;;;18.80;1.00;;;;;;5021432;28;20263;-80
2022/08/17 01:41:12;;;;;;;11.43;6.70;;;18.80;1.00;;;;;;5028765;28;20784;-80
2022/08/17 01:43:59;;;;;;;8.23;6.90;;;18.80;1.00;;;;;;5019595;28;20459;-80
2022/08/17 01:46:29;;;;;;;8.43;7.10;;;18.80;1.00;;;;;;5021537;28;20509;-80
2022/08/17 01:49:10;;;;;;;9.43;7.00;;;18.80;1.00;;;;;;5018173;28;20787;-80
2022/08/17 01:51:38;;;;;;;10.23;6.87;;;18.80;1.00;;;;;;5017529;28;20413;-80
2022/08/17 01:54:16;;;;;;;9.30;7.10;;;18.80;1.00;;;;;;5026125;28;20775;-80
2022/08/17 01:56:45;;;;;;;8.77;7.50;;;18.70;1.00;;;;;;5016995;28;20418;-80
2022/08/17 02:00:09;;;;;;;11.43;6.90;;;18.70;1.00;;;;;;5027111;28;20427;-80
2022/08/17 02:02:44;;;;;;;8.57;6.40;;;18.70;1.00;;;;;;5030815;28;20473;-80
2022/08/17 02:05:20;;;;;;;12.60;7.27;;;18.70;1.00;;;;;;5018070;28;20458;-80
2022/08/17 02:08:07;;;;;;;11.70;6.67;;;18.70;1.00;;;;;;5033962;28;20413;-81
2022/08/17 02:10:37;;;;;;;7.90;6.90;;;18.60;1.00;;;;;;5034192;28;20432;-80
2022/08/17 02:13:07;;;;;;;16.73;7.53;;;18.80;1.00;;;;;;5033523;28;20778;-80
2022/08/17 02:15:38;;;;;;;12.20;6.73;;;18.60;1.00;;;;;;5022113;28;20381;-80
2022/08/17 02:18:09;;;;;;;11.67;6.80;;;18.70;1.00;;;;;;5026353;28;20397;-80
2022/08/17 02:20:44;;;;;;;10.77;7.30;;;18.70;1.00;;;;;;5031298;28;20425;-80
2022/08/17 02:23:11;;;;;;;8.07;6.50;;;18.60;1.00;;;;;;5035221;28;20520;-74
2022/08/17 02:25:38;;;;;;;10.50;7.27;;;18.70;1.00;;;;;;5031258;28;20460;-74
2022/08/17 02:28:08;;;;;;;9.30;6.30;;;18.60;1.00;;;;;;5025331;28;20445;-74
2022/08/17 02:30:34;;;;;;;23.53;7.13;;;18.60;1.00;;;;;;5035171;28;20421;-74
2022/08/17 02:33:02;;;;;;;8.50;6.73;;;18.60;1.00;;;;;;5028044;28;20430;-74
2022/08/17 02:35:38;;;;;;;13.40;6.90;;;18.60;1.00;;;;;;5032962;28;20410;-74
2022/08/17 02:38:08;;;;;;;9.60;6.33;;;18.60;1.00;;;;;;5027957;28;20460;-73
2022/08/17 02:40:39;;;;;;;7.93;6.43;;;18.50;1.00;;;;;;5021692;28;20445;-74
2022/08/17 02:43:08;;;;;;;14.63;6.43;;;18.50;1.00;;;;;;5029637;28;20405;-74
2022/08/17 02:45:34;;;;;;;9.47;6.70;;;18.40;1.00;;;;;;5015342;28;20426;-74
2022/08/17 02:48:00;;;;;;;7.40;6.70;;;18.50;1.00;;;;;;5023613;28;20953;-74
2022/08/17 02:50:38;;;;;;;14.13;5.97;;;18.40;1.00;;;;;;5027044;28;20188;-74
2022/08/17 02:53:07;;;;;;;8.80;6.77;;;18.40;1.00;;;;;;5022432;28;20412;-80
2022/08/17 02:55:41;;;;;;;7.20;6.43;;;18.40;1.00;;;;;;5034648;28;20772;-81
2022/08/17 02:58:09;;;;;;;7.53;6.43;;;18.40;1.00;;;;;;5032832;28;20393;-80
2022/08/17 03:00:41;;;;;;;11.87;7.00;;;18.40;1.00;;;;;;5029817;28;20404;-80
2022/08/17 03:03:09;;;;;;;8.80;6.57;;;18.40;1.00;;;;;;5033972;28;20933;-80
2022/08/17 03:05:39;;;;;;;10.47;7.13;;;18.50;1.00;;;;;;5034464;28;20431;-80
2022/08/17 03:08:37;;;;;;;7.97;6.63;;;18.40;1.00;;;;;;5023246;28;20407;-80
2022/08/17 03:11:07;;;;;;;7.70;6.80;;;18.40;1.00;;;;;;5020792;28;20392;-80
2022/08/17 03:13:38;;;;;;;8.53;6.30;;;18.40;1.00;;;;;;5022783;28;20452;-81
2022/08/17 03:16:07;;;;;;;9.60;6.20;;;18.40;1.00;;;;;;5029825;28;20408;-80
2022/08/17 03:19:07;;;;;;;9.17;6.37;;;18.40;1.00;;;;;;5025733;28;20377;-80
2022/08/17 03:21:33;;;;;;;9.50;7.40;;;18.30;1.00;;;;;;5029775;28;20426;-80
2022/08/17 03:24:08;;;;;;;12.27;7.27;;;18.30;1.00;;;;;;5030633;28;20432;-80
2022/08/17 03:26:50;;;;;;;14.00;7.17;;;18.30;1.00;;;;;;5023105;28;20205;-80
2022/08/17 03:29:31;;;;;;;11.73;6.80;;;18.30;1.00;;;;;;5014326;28;20419;-81
2022/08/17 03:32:19;;;;;;;9.80;7.03;;;18.20;1.00;;;;;;5030783;28;20995;-81
2022/08/17 03:34:49;;;;;;;10.43;6.93;;;18.20;1.00;;;;;;5033953;28;20406;-80
2022/08/17 03:37:15;;;;;;;7.63;6.43;;;18.20;1.00;;;;;;5024848;28;20404;-74
2022/08/17 03:39:41;;;;;;;13.60;7.20;;;18.20;1.00;;;;;;5018420;28;20414;-74
2022/08/17 03:42:12;;;;;;;15.90;6.80;;;18.20;1.00;;;;;;5027059;28;20425;-74
2022/08/17 03:44:38;;;;;;;20.03;6.87;;;18.20;1.00;;;;;;5019144;28;20306;-74
2022/08/17 03:58:08;;;;;;;10.23;6.73;;;18.20;1.00;;;;;;5022018;28;20472;-74
2022/08/17 04:00:35;;;;;;;11.13;7.00;;;18.20;1.00;;;;;;5015745;28;20422;-74
2022/08/17 04:03:02;;;;;;;13.40;6.47;;;18.20;1.00;;;;;;5021449;28;21020;-74
2022/08/17 04:05:38;;;;;;;7.70;6.30;;;18.20;1.00;;;;;;5030748;28;20461;-78
2022/08/17 04:08:09;;;;;;;13.90;6.43;;;18.20;1.00;;;;;;5014409;28;20449;-78
2022/08/17 04:10:43;;;;;;;12.50;6.80;;;18.20;1.00;;;;;;5025390;28;20415;-78
2022/08/17 04:13:31;;;;;;;8.83;6.30;;;18.20;1.00;;;;;;5020136;28;20425;-78
2022/08/17 04:16:07;;;;;;;9.20;5.90;;;18.20;1.00;;;;;;5026212;28;20772;-78
2022/08/17 04:18:44;;;;;;;12.30;6.87;;;18.20;1.00;;;;;;5013366;28;20405;-79
2022/08/17 04:21:37;;;;;;;9.30;5.97;;;18.20;1.00;;;;;;5031247;28;20388;-79
2022/08/17 04:24:13;;;;;;;7.77;6.40;;;18.20;1.00;;;;;;5024625;28;20488;-79
2022/08/17 04:26:56;;;;;;;6.87;6.13;;;18.20;1.00;;;;;;5033258;28;20980;-78
2022/08/17 04:29:26;;;;;;;16.67;7.07;;;18.20;1.00;;;;;;5027396;28;20444;-79
2022/08/17 04:32:02;;;;;;;12.87;6.70;;;18.30;1.00;;;;;;5021871;28;20817;-80
2022/08/17 04:34:32;;;;;;;11.93;6.50;;;18.30;1.00;;;;;;5032835;28;20447;-79
2022/08/17 04:37:08;;;;;;;18.17;6.27;;;18.30;1.00;;;;;;5033371;28;20376;-78
2022/08/17 04:39:37;;;;;;;11.17;6.03;;;18.40;1.00;;;;;;5028609;28;20439;-83
2022/08/17 04:42:37;;;;;;;6.60;5.90;;;18.40;1.00;;;;;;5029066;28;20968;-84
2022/08/17 04:45:14;;;;;;;9.20;6.07;;;18.50;1.00;;;;;;5020337;28;20843;-84
2022/08/17 04:51:08;;;;;;;8.60;6.30;;;18.50;1.00;;;;;;5021618;28;20442;-83
2022/08/17 04:53:34;;;;;;;8.40;6.63;;;18.60;1.00;;;;;;5030036;28;20397;-79
2022/08/17 04:56:02;;;;;;;9.60;6.50;;;18.60;1.00;;;;;;5028354;28;20411;-79
2022/08/17 04:58:37;;;;;;;9.40;6.67;;;18.60;1.00;;;;;;5020346;28;20753;-79
2022/08/17 05:01:22;;;;;;;9.70;6.20;;;18.70;1.00;;;;;;5013174;28;20413;-79
2022/08/17 05:03:48;;;;;;;9.07;6.30;;;18.70;1.00;;;;;;5025852;28;20942;-78
2022/08/17 05:06:20;;;;;;;10.57;6.40;;;18.70;1.00;;;;;;5027487;28;20489;-77
2022/08/17 05:09:07;;;;;;;9.80;5.40;;;18.80;1.00;;;;;;5025116;28;20172;-77
2022/08/17 05:11:38;;;;;;;17.83;6.20;;;18.80;1.00;;;;;;5031404;28;20457;-77
2022/08/17 05:14:08;;;;;;;15.43;6.03;;;18.90;1.00;;;;;;5019792;28;20412;-77
2022/08/17 05:16:38;;;;;;;9.80;5.97;;;19.00;1.00;;;;;;5016852;28;20473;-77
2022/08/17 05:19:08;;;;;;;7.83;6.10;;;19.10;1.00;;;;;;5023302;28;20426;-79
2022/08/17 05:21:37;;;;;;;11.53;6.70;;;19.20;1.00;;;;;;5021871;28;20434;-80
2022/08/17 05:24:38;;;;;;;13.30;6.30;;;19.40;1.00;;;;;;5023334;28;20457;-85
2022/08/17 05:27:37;;;;;;;9.33;6.17;;;19.50;1.00;;;;;;5034948;28;20437;-85
2022/08/17 05:30:38;;;;;;;24.37;6.20;;;19.70;1.00;;;;;;5021579;28;20489;-85
2022/08/17 05:33:39;;;;;;;16.77;6.50;;;19.90;1.00;;;;;;5022527;28;20520;-88
2022/08/17 05:36:10;;;;;;;17.60;5.63;;;20.10;1.00;;;;;;5035752;28;20506;-89
2022/08/17 05:39:07;;;;;;;26.17;5.93;;;20.40;1.00;;;;;;5023869;28;20436;-88
2022/08/17 05:41:46;;;;;;;56.53;6.83;;;20.70;1.00;;;;;;5035981;28;20403;-89
2022/08/17 05:44:12;;;;;;;39.63;6.57;;;20.90;1.00;;;;;;5017338;28;20477;-89
2022/08/17 05:47:07;;;;;;;30.60;6.17;;;21.10;1.00;;;;;;5029074;28;21022;-89
2022/08/17 05:53:31;;;;;;;9.37;5.67;;;21.50;1.00;;;;;;5030832;28;21073;-89
2022/08/17 05:56:05;;;;;;;7.47;5.03;;;21.80;1.00;;;;;;5036021;28;20370;-89
2022/08/17 06:02:34;;;;;;;5.80;4.23;;;22.00;1.00;;;;;;5026698;28;20447;-89
2022/08/17 06:05:31;;;;;;;7.40;5.23;;;22.20;1.00;;;;;;5026865;28;20468;-88
2022/08/17 06:08:31;;;;;;;6.00;4.50;;;22.30;1.00;;;;;;5029725;28;20404;-89
2022/08/17 06:11:37;;;;;;;11.83;4.80;;;22.50;1.00;;;;;;5036200;28;20424;-80
2022/08/17 06:14:30;;;;;;;5.80;4.90;;;22.60;1.00;;;;;;5028859;28;20415;-80
2022/08/17 06:17:12;;;;;;;7.70;4.83;;;22.80;1.00;;;;;;5015470;28;20812;-79
2022/08/17 06:19:47;;;;;;;6.93;4.53;;;22.90;1.00;;;;;;5026404;28;20506;-79
2022/08/17 06:22:17;;;;;;;7.37;4.73;;;23.00;1.00;;;;;;5026530;28;20412;-79
2022/08/17 06:25:17;;;;;;;10.10;4.40;;;23.10;1.00;;;;;;5015673;28;20459;-80
2022/08/17 06:27:48;;;;;;;6.83;4.80;;;23.20;1.00;;;;;;5024424;28;20431;-79
2022/08/17 06:30:23;;;;;;;8.70;5.03;;;23.40;1.00;;;;;;5018103;28;20452;-79
2022/08/17 06:32:50;;;;;;;14.20;5.60;;;23.40;1.00;;;;;;5023619;28;20429;-78
2022/08/17 06:35:55;;;;;;;11.00;4.50;;;23.60;1.00;;;;;;5025605;28;20461;-78
2022/08/17 06:38:41;;;;;;;13.10;4.87;;;23.70;1.00;;;;;;5029454;28;20420;-80
2022/08/17 06:41:37;;;;;;;18.60;5.33;;;23.80;1.00;;;;;;5020690;28;20428;-79
2022/08/17 06:44:30;;;;;;;12.73;5.20;;;23.90;1.00;;;;;;5028554;28;20454;-80
2022/08/17 06:47:14;;;;;;;18.43;5.40;;;23.90;1.00;;;;;;5017238;28;20936;-80
2022/08/17 06:50:03;;;;;;;8.20;4.53;;;23.80;1.00;;;;;;5021769;28;20417;-80
2022/08/17 06:52:33;;;;;;;13.20;4.73;;;24.00;1.00;;;;;;5029926;28;20498;-80
2022/08/17 06:55:39;;;;;;;5.20;4.60;;;24.10;1.00;;;;;;5022230;28;20496;-89
2022/08/17 06:58:07;;;;;;;7.73;4.67;;;24.20;1.00;;;;;;5014560;28;20855;-90
2022/08/17 07:00:46;;;;;;;10.13;5.23;;;24.30;1.00;;;;;;5016924;28;20417;-89
2022/08/17 07:03:40;;;;;;;9.33;4.70;;;24.40;1.00;;;;;;5020472;28;20454;-90
2022/08/17 07:06:18;;;;;;;8.40;5.07;;;24.40;1.00;;;;;;5021024;28;20939;-89
2022/08/17 07:09:01;;;;;;;9.33;4.80;;;24.40;1.00;;;;;;5028429;28;20437;-90
2022/08/17 07:11:33;;;;;;;9.40;4.50;;;24.40;1.00;;;;;;5022659;28;20762;-80
2022/08/17 07:14:30;;;;;;;11.07;4.80;;;24.50;1.00;;;;;;5028339;28;20460;-80
2022/08/17 07:16:59;;;;;;;6.80;4.97;;;24.40;1.00;;;;;;5018255;28;20758;-80
2022/08/17 07:19:30;;;;;;;5.83;4.50;;;24.40;1.00;;;;;;5020235;28;20456;-80
2022/08/17 07:22:01;;;;;;;11.80;4.83;;;24.50;1.00;;;;;;5018896;28;20446;-79
2022/08/17 07:24:46;;;;;;;8.43;5.07;;;24.50;1.00;;;;;;5032129;28;20598;-81
2022/08/17 07:27:26;;;;;;;6.33;4.87;;;24.60;1.00;;;;;;5028906;28;20575;-79
2022/08/17 07:30:04;;;;;;;7.57;4.77;;;24.60;1.00;;;;;;5023299;28;20754;-80
2022/08/17 07:33:00;;;;;;;19.77;6.10;;;24.80;1.00;;;;;;5030970;28;20885;-80
2022/08/17 07:35:29;;;;;;;7.60;5.30;;;24.80;1.00;;;;;;5031437;28;20425;-80
2022/08/17 07:38:18;;;;;;;7.60;4.63;;;24.90;1.00;;;;;;5021769;28;20469;-79
2022/08/17 07:41:01;;;;;;;6.17;5.10;;;25.00;1.00;;;;;;5013982;28;20922;-89
2022/08/17 07:43:38;;;;;;;8.40;4.93;;;25.20;1.00;;;;;;5027941;28;20426;-90
2022/08/17 07:49:10;;;;;;;8.50;5.40;;;25.50;1.00;;;;;;5033097;28;21028;-90
2022/08/17 07:51:43;;;;;;;8.10;5.27;;;25.70;1.00;;;;;;5024563;28;20435;-90
2022/08/17 07:54:13;;;;;;;6.30;4.93;;;25.80;1.00;;;;;;5019253;28;20411;-90
2022/08/17 07:57:23;;;;;;;6.37;5.17;;;25.90;1.00;;;;;;5023635;28;20429;-80
2022/08/17 08:00:01;;;;;;;11.30;5.20;;;26.00;1.00;;;;;;5030308;28;20445;-80
2022/08/17 08:02:37;;;;;;;10.33;4.60;;;26.00;1.00;;;;;;5030525;28;20442;-80
2022/08/17 08:05:24;;;;;;;7.83;5.17;;;26.00;1.00;;;;;;5014643;28;20492;-80
2022/08/17 08:07:56;;;;;;;7.67;5.50;;;26.00;1.00;;;;;;5021698;28;20843;-79
2022/08/17 08:10:35;;;;;;;7.13;5.30;;;25.90;1.00;;;;;;5031448;28;20943;-80
2022/08/17 08:13:10;;;;;;;10.27;5.63;;;25.90;1.00;;;;;;5037671;28;21004;-80
2022/08/17 08:15:48;;;;;;;15.33;5.30;;;25.80;1.00;;;;;;5019815;28;20987;-80
2022/08/17 08:18:33;;;;;;;10.60;5.53;;;25.80;1.00;;;;;;5011596;28;20437;-80
2022/08/17 08:21:08;;;;;;;7.43;4.87;;;25.80;1.00;;;;;;5021070;28;20462;-79
2022/08/17 08:23:57;;;;;;;10.70;5.80;;;25.70;1.00;;;;;;5023081;28;20422;-80
2022/08/17 08:26:39;;;;;;;8.60;5.13;;;25.70;1.00;;;;;;5019813;28;20429;-89
2022/08/17 08:29:08;;;;;;;7.90;5.53;;;25.60;1.00;;;;;;5013585;28;20405;-90
2022/08/17 08:31:42;;;;;;;8.53;5.40;;;25.60;1.00;;;;;;5028801;28;20428;-90
2022/08/17 08:34:23;;;;;;;6.53;5.43;;;25.60;1.00;;;;;;5032822;28;20410;-92
2022/08/17 08:37:20;;;;;;;15.00;5.90;;;25.60;1.00;;;;;;5032324;28;20507;-91
2022/08/17 08:40:06;;;;;;;11.67;5.97;;;25.60;1.00;;;;;;5025455;28;20430;-90
2022/08/17 08:42:55;;;;;;;7.53;5.63;;;25.60;1.00;;;;;;5023797;28;20420;-90
2022/08/17 08:45:40;;;;;;;15.20;5.70;;;25.60;1.00;;;;;;5030336;28;20469;-90
2022/08/17 08:48:33;;;;;;;7.30;5.87;;;25.60;1.00;;;;;;5018278;28;20442;-91
2022/08/17 08:51:26;;;;;;;15.50;5.80;;;25.70;1.00;;;;;;5026118;28;20931;-90
2022/08/17 08:54:08;;;;;;;6.80;5.50;;;25.70;1.00;;;;;;5028272;28;20419;-76
2022/08/17 08:56:44;;;;;;;9.20;5.63;;;25.60;1.00;;;;;;5016626;28;20440;-76
2022/08/17 08:59:35;;;;;;;8.00;5.70;;;25.70;1.00;;;;;;5026158;28;20817;-76
2022/08/17 09:02:32;;;;;;;8.60;5.70;;;25.80;1.00;;;;;;5031705;28;20436;-76
2022/08/17 09:05:19;;;;;;;9.33;5.97;;;25.80;1.00;;;;;;5033773;28;20449;-76
2022/08/17 09:08:05;;;;;;;16.40;6.70;;;25.70;1.00;;;;;;5019680;28;20525;-76
2022/08/17 09:10:46;;;;;;;13.50;6.37;;;25.60;1.00;;;;;;5028825;28;20947;-70
2022/08/17 09:13:17;;;;;;;18.93;6.20;;;25.50;1.00;;;;;;5032651;28;20432;-70
2022/08/17 09:15:57;;;;;;;8.90;6.67;;;25.50;1.00;;;;;;5024992;28;20427;-69
2022/08/17 09:18:26;;;;;;;7.93;6.00;;;25.50;1.00;;;;;;5030475;28;20433;-69
2022/08/17 09:21:04;;;;;;;10.53;6.50;;;25.60;1.00;;;;;;5030861;28;20452;-69
2022/08/17 09:23:36;;;;;;;7.47;5.50;;;25.60;1.00;;;;;;5015480;28;20439;-69
2022/08/17 09:26:24;;;;;;;10.83;6.20;;;25.70;1.00;;;;;;5025651;28;20459;-69
2022/08/17 09:28:52;;;;;;;7.63;6.83;;;25.70;1.00;;;;;;5029685;28;20435;-69
2022/08/17 09:31:34;;;;;;;11.40;6.33;;;25.70;1.00;;;;;;5018297;28;21923;-69
2022/08/17 09:34:07;;;;;;;9.07;5.90;;;25.70;1.00;;;;;;5022917;28;20509;-69
2022/08/17 09:36:53;;;;;;;16.60;6.43;;;25.80;1.00;;;;;;5021943;28;20519;-69
2022/08/17 09:39:33;;;;;;;13.67;6.83;;;26.10;1.00;;;;;;5042603;28;20443;-69
2022/08/17 09:42:09;;;;;;;10.23;5.83;;;26.40;1.00;;;;;;5052801;28;20793;-69
2022/08/17 09:44:38;;;;;;;15.70;6.30;;;26.70;1.00;;;;;;5051785;28;20512;-69
2022/08/17 09:47:11;;;;;;;8.80;6.77;;;26.90;1.00;;;;;;5052620;28;20421;-69
2022/08/17 09:49:44;;;;;;;11.80;6.30;;;27.10;1.00;;;;;;5051871;28;20425;-70
2022/08/17 09:52:22;;;;;;;11.83;6.17;;;27.40;1.00;;;;;;5052606;28;20446;-69
2022/08/17 09:54:50;;;;;;;9.80;5.53;;;27.80;1.00;;;;;;5052283;28;20564;-70
2022/08/17 09:57:22;;;;;;;12.30;5.50;;;28.00;1.00;;;;;;5052796;28;20454;-69
2022/08/17 10:00:17;;;;;;;8.30;5.70;;;28.00;1.00;;;;;;5051706;28;20446;-70
2022/08/17 10:02:54;;;;;;;9.27;6.17;;;28.10;1.00;;;;;;5052368;28;20598;-69
2022/08/17 10:05:50;;;;;;;12.33;6.47;;;28.10;1.00;;;;;;5048202;28;20459;-69
2022/08/17 10:08:31;;;;;;;9.13;5.67;;;28.20;1.00;;;;;;5049253;28;20975;-70
2022/08/17 10:12:14;;;;;;;8.00;5.60;;;28.20;1.00;;;;;;5044271;28;20928;-71
2022/08/17 10:14:13;;;;;;;6.47;5.90;;;28.30;1.00;;;;;;5050899;28;20501;-70
2022/08/17 10:16:49;;;;;;;6.70;5.70;;;28.10;1.00;;;;;;5033872;28;20447;-70
2022/08/17 10:19:36;;;;;;;8.27;5.80;;;28.30;1.00;;;;;;5026767;28;20461;-70
2022/08/17 10:27:51;;;;;;;7.37;5.40;;;28.60;1.00;;;;;;5024836;28;20484;-77
2022/08/17 10:30:20;;;;;;;9.33;5.67;;;28.60;1.00;;;;;;5027069;28;20776;-77
2022/08/17 10:32:53;;;;;;;6.30;5.70;;;28.90;1.00;;;;;;5019699;28;20520;-77
2022/08/17 10:35:47;;;;;;;8.27;6.07;;;29.00;1.00;;;;;;5022829;28;20440;-80
2022/08/17 10:38:18;;;;;;;12.13;5.60;;;28.90;1.00;;;;;;5015241;28;20406;-80
2022/08/17 10:40:47;;;;;;;6.87;5.37;;;28.10;1.00;;;;;;5034053;28;20450;-80
2022/08/17 10:43:22;;;;;;;8.70;5.40;;;28.30;1.00;;;;;;5021147;28;20430;-76
2022/08/17 10:46:06;;;;;;;6.30;5.57;;;28.60;1.00;;;;;;5033857;28;20452;-76
2022/08/17 10:48:36;;;;;;;9.40;5.50;;;28.90;1.00;;;;;;5020341;28;20842;-76
2022/08/17 10:51:08;;;;;;;6.70;6.10;;;29.30;1.00;;;;;;5033819;28;20424;-76
2022/08/17 10:53:34;;;;;;;8.10;5.13;;;29.40;1.00;;;;;;5026740;28;20898;-76
2022/08/17 10:56:11;;;;;;;8.03;5.23;;;29.50;1.00;;;;;;5027427;28;20421;-76
2022/08/17 10:58:56;;;;;;;6.10;5.53;;;29.60;1.00;;;;;;5034138;28;20246;-80
2022/08/17 11:01:36;;;;;;;5.83;5.10;;;29.50;1.00;;;;;;5033265;28;20417;-80
2022/08/17 11:04:07;;;;;;;5.87;4.93;;;29.30;1.00;;;;;;5033491;28;20454;-80
2022/08/17 11:06:36;;;;;;;5.37;4.80;;;29.10;1.00;;;;;;5025073;28;20449;-80
2022/08/17 11:09:13;;;;;;;5.73;5.00;;;28.90;1.00;;;;;;5032901;28;20445;-80
2022/08/17 11:11:55;;;;;;;9.20;5.70;;;28.60;1.00;;;;;;5033627;28;20443;-80
2022/08/17 11:14:42;;;;;;;6.60;5.87;;;28.10;1.00;;;;;;5031078;28;20466;-81
2022/08/17 11:17:29;;;;;;;8.47;5.17;;;27.80;1.00;;;;;;5032947;28;20422;-80
2022/08/17 11:19:57;;;;;;;9.37;5.73;;;27.50;1.00;;;;;;5033158;28;20417;-80
2022/08/17 11:22:51;;;;;;;8.20;5.00;;;27.50;1.00;;;;;;5033081;28;20422;-80
2022/08/17 11:25:30;;;;;;;8.60;5.23;;;27.50;1.00;;;;;;5033244;28;20455;-80
2022/08/17 11:28:15;;;;;;;9.03;5.80;;;27.40;1.00;;;;;;5033498;28;20425;-80
2022/08/17 11:30:53;;;;;;;8.63;5.67;;;27.50;1.00;;;;;;5033358;28;20427;-80
2022/08/17 11:33:28;;;;;;;6.83;5.60;;;27.60;1.00;;;;;;5033165;28;20430;-80
2022/08/17 11:36:24;;;;;;;5.90;5.40;;;27.90;1.00;;;;;;5032746;28;20430;-80
2022/08/17 11:38:58;;;;;;;10.30;6.03;;;28.20;1.00;;;;;;5028654;28;20820;-80
2022/08/17 11:41:47;;;;;;;8.80;6.50;;;28.50;1.00;;;;;;5013256;28;20920;-80
2022/08/17 11:44:31;;;;;;;8.00;6.00;;;28.70;1.00;;;;;;5020744;28;20461;-80
2022/08/17 11:53:36;;;;;;;6.23;5.53;;;29.00;1.00;;;;;;5032950;28;20932;-80
2022/08/17 11:56:09;;;;;;;8.03;5.20;;;29.30;1.00;;;;;;5030883;28;25607;-80
2022/08/17 11:58:42;;;;;;;8.40;5.80;;;29.60;1.00;;;;;;5032383;28;20425;-80
2022/08/17 12:01:31;;;;;;;17.57;5.63;;;29.80;1.00;;;;;;5023422;28;20421;-80
2022/08/17 12:04:23;;;;;;;8.10;5.17;;;30.10;1.00;;;;;;5023492;28;20498;-80
2022/08/17 12:06:58;;;;;;;5.67;4.77;;;30.20;1.00;;;;;;5026068;28;20407;-80
2022/08/17 12:09:30;;;;;;;8.77;4.90;;;30.20;1.00;;;;;;5030670;28;20400;-80
2022/08/17 12:12:15;;;;;;;7.70;4.80;;;30.50;1.00;;;;;;5015711;28;20473;-77
2022/08/17 12:14:56;;;;;;;8.83;3.93;;;30.60;1.00;;;;;;5025137;28;20442;-77
2022/08/17 12:17:34;;;;;;;6.73;4.73;;;30.80;1.00;;;;;;5019650;28;20616;-77
2022/08/17 12:20:27;;;;;;;5.00;3.87;;;30.90;1.00;;;;;;5031417;28;20430;-77
2022/08/17 12:23:08;;;;;;;6.63;4.00;;;30.80;1.00;;;;;;5031797;28;20419;-77
2022/08/17 12:25:36;;;;;;;5.27;4.07;;;30.80;1.00;;;;;;5018169;28;20950;-79
2022/08/17 12:28:02;;;;;;;5.73;4.40;;;30.50;1.00;;;;;;5035356;28;20796;-78
2022/08/17 12:30:27;;;;;;;4.20;3.80;;;30.40;1.00;;;;;;5027548;28;20434;-78
2022/08/17 12:32:53;;;;;;;3.90;3.60;;;30.40;1.00;;;;;;5017551;28;20246;-78
2022/08/17 12:35:28;;;;;;;5.70;3.97;;;30.40;1.00;;;;;;5022434;28;20188;-83
2022/08/17 12:37:56;;;;;;;4.23;3.83;;;30.20;1.00;;;;;;5016563;28;20172;-72
2022/08/17 12:40:27;;;;;;;6.03;3.67;;;30.10;1.00;;;;;;5023213;28;20430;-73
2022/08/17 12:43:02;;;;;;;7.70;4.30;;;30.00;1.00;;;;;;5017676;28;20422;-71
2022/08/17 12:45:34;;;;;;;4.47;3.93;;;30.20;1.00;;;;;;5022530;28;20863;-72
2022/08/17 12:48:06;;;;;;;4.53;4.13;;;30.30;1.00;;;;;;5023934;28;20408;-76
2022/08/17 12:50:37;;;;;;;11.03;4.00;;;30.40;1.00;;;;;;5029577;28;20465;-71
2022/08/17 12:53:11;;;;;;;6.13;3.90;;;30.50;1.00;;;;;;5029530;28;20424;-71
2022/08/17 12:55:37;;;;;;;4.13;3.73;;;30.60;1.00;;;;;;5033600;28;20433;-71
2022/08/17 12:58:04;;;;;;;4.10;3.67;;;30.40;1.00;;;;;;5022631;28;20426;-73
2022/08/17 13:00:41;;;;;;;6.40;3.53;;;30.40;1.00;;;;;;5032578;28;20423;-73
2022/08/17 13:03:18;;;;;;;8.00;3.80;;;30.50;1.00;;;;;;5031877;28;20492;-72
2022/08/17 13:06:06;;;;;;;5.13;4.00;;;30.60;1.00;;;;;;5035531;28;20826;-73
2022/08/17 13:08:36;;;;;;;6.63;4.13;;;30.80;1.00;;;;;;5023555;28;20407;-73
2022/08/17 13:11:08;;;;;;;6.73;4.17;;;30.90;1.00;;;;;;5028612;28;20441;-73
2022/08/17 13:13:37;;;;;;;5.23;3.80;;;30.90;1.00;;;;;;5029075;28;20406;-73
2022/08/17 13:16:19;;;;;;;4.80;4.20;;;31.10;1.00;;;;;;5023530;28;20423;-71
2022/08/17 13:18:47;;;;;;;5.07;4.33;;;31.20;1.00;;;;;;5022566;28;20499;-71
2022/08/17 13:21:17;;;;;;;7.80;3.63;;;31.20;1.00;;;;;;5021030;28;20477;-71
2022/08/17 13:24:04;;;;;;;5.00;3.83;;;31.20;1.00;;;;;;5031371;28;20569;-71
2022/08/17 13:26:33;;;;;;;4.40;3.87;;;31.30;1.00;;;;;;5034903;28;20778;-71
2022/08/17 13:29:04;;;;;;;5.63;3.93;;;31.10;1.00;;;;;;5035402;28;20403;-72
2022/08/17 13:31:40;;;;;;;4.20;3.80;;;31.40;1.00;;;;;;5028431;28;20420;-72
2022/08/17 13:34:18;;;;;;;4.40;4.00;;;31.20;1.00;;;;;;5026702;28;20430;-72
2022/08/17 13:36:45;;;;;;;4.80;4.27;;;31.10;1.00;;;;;;5028160;28;21592;-72
2022/08/17 13:39:23;;;;;;;5.40;3.67;;;31.20;1.00;;;;;;5025299;28;20435;-72
2022/08/17 13:41:51;;;;;;;3.80;3.50;;;31.30;1.00;;;;;;5022656;28;20429;-72
2022/08/17 13:44:39;;;;;;;5.50;3.37;;;31.10;1.00;;;;;;5034841;28;20462;-68
2022/08/17 13:47:26;;;;;;;3.80;3.60;;;30.80;1.00;;;;;;5029736;28;20514;-80
2022/08/17 13:50:02;;;;;;;3.90;3.60;;;30.60;1.00;;;;;;5024613;28;20458;-80
2022/08/17 13:52:41;;;;;;;4.43;3.73;;;30.60;1.00;;;;;;5022474;28;20416;-70
2022/08/17 13:55:20;;;;;;;4.83;3.50;;;30.90;1.00;;;;;;5023953;28;20753;-71
2022/08/17 13:57:48;;;;;;;4.00;3.70;;;31.10;1.00;;;;;;5023018;28;20797;-70
2022/08/17 14:00:28;;;;;;;7.00;3.63;;;31.20;1.00;;;;;;5018621;28;20427;-70
2022/08/17 14:02:56;;;;;;;4.43;3.57;;;31.40;1.00;;;;;;5021743;28;20439;-70
2022/08/17 14:05:22;;;;;;;9.03;3.50;;;31.60;1.00;;;;;;5033825;28;20505;-72
2022/08/17 14:07:58;;;;;;;3.40;3.10;;;31.90;1.00;;;;;;5028612;28;20427;-70
2022/08/17 14:10:27;;;;;;;9.10;3.43;;;32.00;1.00;;;;;;5016437;28;20204;-71
2022/08/17 14:12:53;;;;;;;4.43;3.70;;;32.30;1.00;;;;;;5022158;28;20823;-71
2022/08/17 14:15:24;;;;;;;4.90;4.40;;;32.70;1.00;;;;;;5029583;28;20445;-72
2022/08/17 14:17:50;;;;;;;6.50;3.60;;;33.00;1.00;;;;;;5033148;28;20416;-72
2022/08/17 14:20:19;;;;;;;6.10;4.23;;;33.20;1.00;;;;;;5033778;28;20446;-72
2022/08/17 14:22:48;;;;;;;8.50;4.33;;;33.40;1.00;;;;;;5021868;28;20506;-72
2022/08/17 14:25:21;;;;;;;3.87;3.27;;;33.70;1.00;;;;;;5031069;28;20456;-72